createdAt,value
2023-02-22T00:00:50.065Z,96124.88
2023-02-22T00:03:24.866Z,96119.78
2023-02-22T00:05:58.276Z,96121.94
2023-02-22T00:08:30.475Z,96124.09
2023-02-22T00:10:58.390Z,96128.63
2023-02-22T00:13:29.262Z,96121.94
2023-02-22T00:15:57.597Z,96131.81
2023-02-22T00:18:28.731Z,96128.09
2023-02-22T00:20:59.882Z,96128.88
2023-02-22T00:23:29.817Z,96128.63
2023-02-22T00:25:59.936Z,96120.88
2023-02-22T00:28:30.591Z,96127.56
2023-02-22T00:30:59.785Z,96125.41
2023-02-22T00:33:28.931Z,96126.47
2023-02-22T00:35:56.999Z,96129.44
2023-02-22T00:38:25.523Z,96126.47
2023-02-22T00:40:53.321Z,96127.00
2023-02-22T00:43:21.158Z,96122.47
2023-02-22T00:45:49.815Z,96127.81
2023-02-22T00:48:19.571Z,96122.19
2023-02-22T00:50:49.101Z,96122.97
2023-02-22T00:53:17.710Z,96124.53
2023-02-22T00:55:45.564Z,96124.81
2023-02-22T00:58:13.593Z,96121.91
2023-02-22T01:00:43.657Z,96116.84
2023-02-22T01:03:14.734Z,96123.53
2023-02-22T01:05:43.179Z,96112.56
2023-02-22T01:08:14.569Z,96121.66
2023-02-22T01:10:42.422Z,96110.19
2023-02-22T01:13:12.308Z,96108.84
2023-02-22T01:15:42.336Z,96113.09
2023-02-22T01:18:10.421Z,96104.56
2023-02-22T01:20:38.194Z,96106.16
2023-02-22T01:23:08.039Z,96102.97
2023-02-22T01:25:37.335Z,96104.84
2023-02-22T01:28:06.671Z,96101.09
2023-02-22T01:30:36.737Z,96097.38
2023-02-22T01:33:08.368Z,96097.09
2023-02-22T01:35:38.437Z,96093.09
2023-02-22T01:38:06.586Z,96094.94
2023-02-22T01:40:37.748Z,96093.59
2023-02-22T01:43:15.463Z,96085.84
2023-02-22T01:45:54.127Z,96084.00
2023-02-22T01:48:26.986Z,96082.91
2023-02-22T01:50:58.210Z,96085.00
2023-02-22T01:53:31.272Z,96081.75
2023-02-22T01:56:01.584Z,96074.84
2023-02-22T01:58:31.735Z,96081.56
2023-02-22T02:01:01.100Z,96076.78
2023-02-22T02:03:34.232Z,96069.59
2023-02-22T02:06:05.361Z,96074.34
2023-02-22T02:08:39.970Z,96066.34
2023-02-22T02:11:10.703Z,96067.16
2023-02-22T02:13:38.727Z,96068.44
2023-02-22T02:16:06.951Z,96061.53
2023-02-22T02:18:34.725Z,96072.97
2023-02-22T02:21:33.470Z,96083.41
2023-02-22T02:24:24.706Z,96080.44
2023-02-22T02:27:17.656Z,96077.00
2023-02-22T02:30:18.234Z,96088.66
2023-02-22T02:32:55.207Z,96079.38
2023-02-22T02:35:34.342Z,96082.34
2023-02-22T02:38:11.869Z,96076.75
2023-02-22T02:40:49.284Z,96070.91
2023-02-22T02:43:24.688Z,96061.84
2023-02-22T02:45:58.077Z,96067.97
2023-02-22T02:48:29.729Z,96065.06
2023-02-22T02:51:01.127Z,96061.31
2023-02-22T02:53:35.717Z,96063.97
2023-02-22T02:56:03.956Z,96060.50
2023-02-22T02:58:32.152Z,96054.38
2023-02-22T03:01:04.346Z,96061.59
2023-02-22T03:03:52.438Z,96063.16
2023-02-22T03:06:38.144Z,96052.75
2023-02-22T03:09:17.180Z,96052.44
2023-02-22T03:11:52.726Z,96054.34
2023-02-22T03:14:28.147Z,96054.84
2023-02-22T03:17:04.788Z,96058.31
2023-02-22T03:19:41.681Z,96046.56
2023-02-22T03:22:14.032Z,96044.69
2023-02-22T03:24:52.900Z,96042.56
2023-02-22T03:27:28.349Z,96049.75
2023-02-22T03:30:03.374Z,96043.59
2023-02-22T03:32:38.073Z,96040.94
2023-02-22T03:35:10.940Z,96035.88
2023-02-22T03:37:43.421Z,96041.47
2023-02-22T03:40:16.981Z,96041.22
2023-02-22T03:42:49.941Z,96031.09
2023-02-22T03:45:22.257Z,96032.16
2023-02-22T03:47:56.901Z,96028.19
2023-02-22T03:50:31.028Z,96024.97
2023-02-22T03:52:59.327Z,96022.81
2023-02-22T03:55:31.354Z,96014.81
2023-02-22T03:58:00.967Z,96019.38
2023-02-22T04:00:34.059Z,96016.72
2023-02-22T04:03:02.626Z,96015.91
2023-02-22T04:05:31.883Z,96012.22
2023-02-22T04:07:59.714Z,96009.50
2023-02-22T04:10:28.709Z,96011.91
2023-02-22T04:12:56.423Z,96009.78
2023-02-22T04:15:25.682Z,96006.06
2023-02-22T04:17:57.339Z,96002.34
2023-02-22T04:20:26.201Z,96003.13
2023-02-22T04:23:01.015Z,95989.50
2023-02-22T04:25:29.703Z,95993.78
2023-02-22T04:27:58.234Z,95996.16
2023-02-22T04:30:38.972Z,95989.25
2023-02-22T04:33:10.610Z,95982.00
2023-02-22T04:35:38.665Z,95991.59
2023-02-22T04:38:09.238Z,95996.88
2023-02-22T04:40:37.683Z,95995.03
2023-02-22T04:43:05.971Z,96002.25
2023-02-22T04:45:33.709Z,95995.84
2023-02-22T04:48:03.567Z,95992.13
2023-02-22T04:50:31.339Z,95997.41
2023-02-22T04:52:59.147Z,95991.53
2023-02-22T04:55:29.130Z,95992.03
2023-02-22T04:57:57.873Z,95998.91
2023-02-22T05:00:25.650Z,95995.19
2023-02-22T05:02:58.752Z,95997.31
2023-02-22T05:05:26.551Z,95991.22
2023-02-22T05:07:54.384Z,96000.81
2023-02-22T05:10:22.212Z,96006.94
2023-02-22T05:12:51.598Z,96001.13
2023-02-22T05:15:21.394Z,96003.44
2023-02-22T05:17:49.446Z,95997.31
2023-02-22T05:20:22.761Z,95993.88
2023-02-22T05:22:51.948Z,95986.69
2023-02-22T05:25:20.628Z,96004.25
2023-02-22T05:27:52.933Z,95996.28
2023-02-22T05:30:23.580Z,95996.78
2023-02-22T05:32:51.562Z,95996.53
2023-02-22T05:35:19.432Z,95992.81
2023-02-22T05:37:47.459Z,95998.94
2023-02-22T05:40:15.501Z,95993.31
2023-02-22T05:42:43.268Z,95995.91
2023-02-22T05:45:15.375Z,95993.47
2023-02-22T05:47:43.237Z,95991.81
2023-02-22T05:50:11.453Z,95979.84
2023-02-22T05:52:39.531Z,95988.38
2023-02-22T05:55:07.941Z,95986.53
2023-02-22T05:57:35.854Z,95991.34
2023-02-22T06:00:06.858Z,95988.97
2023-02-22T06:02:41.870Z,95987.13
2023-02-22T06:05:10.014Z,95983.66
2023-02-22T06:07:37.817Z,95995.09
2023-02-22T06:10:06.102Z,95987.91
2023-02-22T06:12:33.799Z,95984.47
2023-02-22T06:15:01.539Z,95991.09
2023-02-22T06:17:30.420Z,95983.91
2023-02-22T06:19:59.588Z,95988.97
2023-02-22T06:22:27.379Z,95991.06
2023-02-22T06:24:55.226Z,95999.03
2023-02-22T06:27:22.979Z,95988.41
2023-02-22T06:29:50.722Z,95988.16
2023-02-22T06:32:18.617Z,95993.72
2023-02-22T06:34:46.371Z,95989.16
2023-02-22T06:37:15.499Z,95997.72
2023-02-22T06:39:43.290Z,96004.13
2023-02-22T06:42:11.273Z,96009.72
2023-02-22T06:44:39.103Z,96004.38
2023-02-22T06:47:07.091Z,96005.44
2023-02-22T06:49:35.888Z,96009.44
2023-02-22T06:52:06.025Z,96010.50
2023-02-22T06:54:35.131Z,96020.09
2023-02-22T06:57:02.966Z,96013.22
2023-02-22T06:59:30.707Z,96015.06
2023-02-22T07:01:59.166Z,96012.19
2023-02-22T07:04:26.916Z,96011.69
2023-02-22T07:06:54.934Z,96014.88
2023-02-22T07:09:22.694Z,96010.66
2023-02-22T07:11:51.776Z,96013.91
2023-02-22T07:14:19.621Z,96012.31
2023-02-22T07:16:47.409Z,96010.22
2023-02-22T07:19:15.282Z,96010.75
2023-02-22T07:21:43.194Z,96003.34
2023-02-22T07:24:10.939Z,96015.38
2023-02-22T07:26:40.694Z,96010.31
2023-02-22T07:29:11.266Z,96007.69
2023-02-22T07:31:40.295Z,96014.63
2023-02-22T07:34:08.110Z,96014.63
2023-02-22T07:36:36.090Z,96004.75
2023-02-22T07:39:03.810Z,95997.31
2023-02-22T07:41:36.094Z,96000.50
2023-02-22T07:44:03.842Z,95994.94
2023-02-22T07:46:33.813Z,95996.00
2023-02-22T07:49:01.574Z,95994.91
2023-02-22T07:51:29.331Z,95989.84
2023-02-22T07:53:57.095Z,95986.91
2023-02-22T07:56:24.866Z,95989.28
2023-02-22T07:58:52.597Z,95988.72
2023-02-22T08:01:20.343Z,95978.25
2023-02-22T08:03:49.502Z,95983.31
2023-02-22T08:06:17.809Z,95978.97
2023-02-22T08:08:45.565Z,95981.31
2023-02-22T08:11:13.388Z,95979.63
2023-02-22T08:13:41.145Z,95975.28
2023-02-22T08:16:09.126Z,95971.72
2023-02-22T08:18:38.266Z,95977.78
2023-02-22T08:21:07.731Z,95975.28
2023-02-22T08:23:35.505Z,95980.78
2023-02-22T08:26:07.506Z,95977.19
2023-02-22T08:28:35.543Z,95982.69
2023-02-22T08:31:03.481Z,95974.50
2023-02-22T08:33:31.257Z,95981.31
2023-02-22T08:35:59.217Z,95976.06
2023-02-22T08:38:30.468Z,95977.78
2023-02-22T08:40:58.637Z,95983.50
2023-02-22T08:43:26.420Z,95984.41
2023-02-22T08:45:57.202Z,95974.81
2023-02-22T08:48:25.338Z,95973.00
2023-02-22T08:50:53.127Z,95974.19
2023-02-22T08:53:20.864Z,95970.81
2023-02-22T08:55:50.708Z,95976.22
2023-02-22T08:58:18.675Z,95977.16
2023-02-22T09:00:46.481Z,95973.22
2023-02-22T09:03:15.795Z,95977.84
2023-02-22T09:05:44.579Z,95973.22
2023-02-22T09:08:13.202Z,95974.13
2023-02-22T09:10:41.630Z,95975.03
2023-02-22T09:13:10.800Z,95966.50
2023-02-22T09:15:39.847Z,95965.41
2023-02-22T09:18:09.716Z,95968.91
2023-02-22T09:20:38.756Z,95967.47
2023-02-22T09:23:07.758Z,95956.91
2023-02-22T09:25:35.721Z,95965.38
2023-02-22T09:28:03.631Z,95962.97
2023-02-22T09:30:34.901Z,95963.38
2023-02-22T09:33:04.667Z,95961.25
2023-02-22T09:35:36.054Z,95955.81
2023-02-22T09:38:06.197Z,95945.31
2023-02-22T09:40:40.964Z,95949.22
2023-02-22T09:43:26.099Z,95950.38
2023-02-22T09:46:11.959Z,95948.75
2023-02-22T09:48:58.187Z,95957.09
2023-02-22T09:51:30.142Z,95956.41
2023-02-22T09:54:01.902Z,95949.16
2023-02-22T09:56:33.985Z,95949.00
2023-02-22T09:59:04.635Z,95950.34
2023-02-22T10:01:36.561Z,95950.38
2023-02-22T10:04:09.282Z,95948.97
2023-02-22T10:06:39.905Z,95949.13
2023-02-22T10:09:08.938Z,95950.59
2023-02-22T10:11:53.371Z,95941.22
2023-02-22T10:14:47.545Z,95939.13
2023-02-22T10:17:27.284Z,95937.22
2023-02-22T10:20:06.049Z,95936.94
2023-02-22T10:22:43.312Z,95934.22
2023-02-22T10:25:13.966Z,95929.59
2023-02-22T10:27:46.167Z,95935.00
2023-02-22T10:30:25.079Z,95936.75
2023-02-22T10:33:00.599Z,95931.31
2023-02-22T10:35:30.948Z,95931.25
2023-02-22T10:38:05.350Z,95933.84
2023-02-22T10:40:33.571Z,95926.00
2023-02-22T10:43:05.989Z,95927.00
2023-02-22T10:45:37.266Z,95921.41
2023-02-22T10:48:11.474Z,95926.56
2023-02-22T10:50:41.511Z,95922.53
2023-02-22T10:53:10.433Z,95922.97
2023-02-22T10:56:13.931Z,95920.06
2023-02-22T10:58:48.869Z,95917.38
2023-02-22T11:01:27.534Z,95914.00
2023-02-22T11:04:06.685Z,95910.72
2023-02-22T11:06:35.830Z,95914.44
2023-02-22T11:09:14.344Z,95912.16
2023-02-22T11:11:45.834Z,95904.38
2023-02-22T11:14:16.237Z,95908.00
2023-02-22T11:16:48.483Z,95902.72
2023-02-22T11:19:24.066Z,95906.25
2023-02-22T11:21:54.326Z,95891.78
2023-02-22T11:24:30.375Z,95885.66
2023-02-22T11:27:06.635Z,95889.94
2023-02-22T11:29:36.723Z,95874.59
2023-02-22T11:32:15.157Z,95869.75
2023-02-22T11:34:44.017Z,95872.66
2023-02-22T11:37:36.407Z,95872.81
2023-02-22T11:40:17.718Z,95860.94
2023-02-22T11:42:49.371Z,95857.41
2023-02-22T11:45:23.826Z,95854.81
2023-02-22T11:47:57.544Z,95856.00
2023-02-22T11:50:30.497Z,95852.03
2023-02-22T11:53:22.644Z,95843.31
2023-02-22T11:56:00.617Z,95838.34
2023-02-22T11:58:42.750Z,95828.69
2023-02-22T12:01:21.960Z,95834.47
2023-02-22T12:04:15.811Z,95833.31
2023-02-22T12:06:52.478Z,95828.56
2023-02-22T12:09:26.125Z,95827.75
2023-02-22T12:12:05.352Z,95824.44
2023-02-22T12:14:43.946Z,95828.34
2023-02-22T12:17:23.788Z,95822.41
2023-02-22T12:19:55.622Z,95820.00
2023-02-22T12:22:27.385Z,95817.72
2023-02-22T12:25:09.478Z,95818.59
2023-02-22T12:27:42.093Z,95807.59
2023-02-22T12:30:17.348Z,95811.84
2023-02-22T12:32:48.733Z,95809.84
2023-02-22T12:35:20.304Z,95805.59
2023-02-22T12:38:04.118Z,95806.81
2023-02-22T12:40:38.485Z,95806.81
2023-02-22T12:43:16.556Z,95800.72
2023-02-22T12:45:50.665Z,95805.19
2023-02-22T12:48:32.825Z,95803.53
2023-02-22T12:51:21.784Z,95797.28
2023-02-22T12:53:57.307Z,95791.31
2023-02-22T12:56:31.725Z,95790.53
2023-02-22T12:59:08.321Z,95788.69
2023-02-22T13:01:40.783Z,95785.19
2023-02-22T13:04:20.061Z,95785.97
2023-02-22T13:07:11.251Z,95785.31
2023-02-22T13:10:04.203Z,95783.66
2023-02-22T13:12:40.541Z,95786.75
2023-02-22T13:15:18.293Z,95783.00
2023-02-22T13:17:56.054Z,95779.88
2023-02-22T13:20:29.743Z,95776.38
2023-02-22T13:23:01.952Z,95772.03
2023-02-22T13:25:37.522Z,95770.44
2023-02-22T13:28:20.765Z,95766.22
2023-02-22T13:31:04.616Z,95767.38
2023-02-22T13:33:48.704Z,95765.06
2023-02-22T13:36:39.227Z,95763.56
2023-02-22T13:39:29.132Z,95759.81
2023-02-22T13:42:19.248Z,95764.09
2023-02-22T13:45:28.593Z,95758.22
2023-02-22T13:48:27.911Z,95752.66
2023-02-22T13:51:12.171Z,95757.78
2023-02-22T13:53:49.682Z,95754.97
2023-02-22T13:56:20.858Z,95754.69
2023-02-22T13:58:53.998Z,95751.63
2023-02-22T14:01:43.679Z,95752.56
2023-02-22T14:04:46.119Z,95753.97
2023-02-22T14:07:54.531Z,95754.59
2023-02-22T14:10:47.157Z,95749.06
2023-02-22T14:13:16.170Z,95747.75
2023-02-22T14:16:18.383Z,95745.13
2023-02-22T14:18:50.311Z,95740.00
2023-02-22T14:21:20.434Z,95745.13
2023-02-22T14:23:49.852Z,95741.25
2023-02-22T14:26:25.784Z,95738.03
2023-02-22T14:28:57.669Z,95740.28
2023-02-22T14:31:36.073Z,95739.91
2023-02-22T14:34:10.526Z,95741.63
2023-02-22T14:36:45.497Z,95747.75
2023-02-22T14:39:24.561Z,95738.72
2023-02-22T14:42:01.764Z,95736.41
2023-02-22T14:44:35.887Z,95740.00
2023-02-22T14:47:07.036Z,95743.09
2023-02-22T14:49:41.913Z,95747.41
2023-02-22T14:52:21.091Z,95745.72
2023-02-22T14:55:06.769Z,95740.56
2023-02-22T14:57:48.332Z,95742.06
2023-02-22T15:00:22.538Z,95745.41
2023-02-22T15:02:57.191Z,95737.22
2023-02-22T15:05:27.456Z,95741.94
2023-02-22T15:07:57.659Z,95748.19
2023-02-22T15:10:29.697Z,95739.56
2023-02-22T15:13:10.628Z,95740.28
2023-02-22T15:15:43.735Z,95748.00
2023-02-22T15:18:24.955Z,95747.03
2023-02-22T15:20:58.092Z,95752.41
2023-02-22T15:23:30.159Z,95747.56
2023-02-22T15:26:05.672Z,95750.88
2023-02-22T15:28:36.608Z,95743.00
2023-02-22T15:31:18.703Z,95752.53
2023-02-22T15:33:47.012Z,95755.50
2023-02-22T15:36:17.647Z,95746.03
2023-02-22T15:38:50.375Z,95744.34
2023-02-22T15:41:27.766Z,95748.53
2023-02-22T15:44:08.064Z,95744.84
2023-02-22T15:46:41.935Z,95735.97
2023-02-22T15:49:25.826Z,95744.25
2023-02-22T15:52:05.278Z,95735.47
2023-02-22T15:54:44.391Z,95745.00
2023-02-22T15:57:19.844Z,95738.91
2023-02-22T16:00:36.197Z,95744.00
2023-02-22T16:03:09.261Z,95742.09
2023-02-22T16:05:42.495Z,95748.34
2023-02-22T16:08:17.888Z,95749.25
2023-02-22T16:10:54.227Z,95750.16
2023-02-22T16:13:32.896Z,95748.16
2023-02-22T16:16:02.787Z,95751.75
2023-02-22T16:18:33.929Z,95753.44
2023-02-22T16:21:04.221Z,95747.78
2023-02-22T16:23:33.545Z,95750.47
2023-02-22T16:26:22.964Z,95749.00
2023-02-22T16:28:55.141Z,95748.31
2023-02-22T16:31:25.271Z,95747.13
2023-02-22T16:33:55.002Z,95739.16
2023-02-22T16:36:26.016Z,95747.38
2023-02-22T16:38:54.012Z,95745.38
2023-02-22T16:41:21.877Z,95748.97
2023-02-22T16:43:51.691Z,95746.34
2023-02-22T16:46:20.620Z,95752.81
2023-02-22T16:48:48.507Z,95755.97
2023-02-22T16:51:26.800Z,95751.13
2023-02-22T16:53:55.939Z,95755.75
2023-02-22T16:56:30.842Z,95756.13
2023-02-22T16:59:02.328Z,95753.09
2023-02-22T17:01:30.294Z,95754.09
2023-02-22T17:03:58.016Z,95765.72
2023-02-22T17:06:29.136Z,95758.31
2023-02-22T17:08:57.012Z,95762.47
2023-02-22T17:11:24.798Z,95756.31
2023-02-22T17:13:52.574Z,95761.88
2023-02-22T17:16:20.739Z,95761.38
2023-02-22T17:18:49.762Z,95759.34
2023-02-22T17:21:19.700Z,95763.00
2023-02-22T17:23:49.435Z,95762.69
2023-02-22T17:26:18.720Z,95776.53
2023-02-22T17:28:46.928Z,95771.44
2023-02-22T17:31:21.970Z,95777.13
2023-02-22T17:33:51.214Z,95780.75
2023-02-22T17:36:20.721Z,95787.38
2023-02-22T17:38:50.859Z,95791.00
2023-02-22T17:41:18.581Z,95784.22
2023-02-22T17:43:46.379Z,95789.47
2023-02-22T17:46:14.321Z,95788.78
2023-02-22T17:48:42.133Z,95805.84
2023-02-22T17:51:12.443Z,95796.84
2023-02-22T17:53:40.411Z,95803.47
2023-02-22T17:56:12.339Z,95793.03
2023-02-22T17:58:40.187Z,95797.28
2023-02-22T18:01:09.318Z,95798.63
2023-02-22T18:03:40.059Z,95806.66
2023-02-22T18:06:08.590Z,95802.22
2023-02-22T18:08:38.949Z,95802.53
2023-02-22T18:11:06.710Z,95796.97
2023-02-22T18:13:35.807Z,95800.41
2023-02-22T18:16:05.505Z,95808.47
2023-02-22T18:18:33.664Z,95800.81
2023-02-22T18:21:01.398Z,95807.16
2023-02-22T18:23:30.800Z,95802.09
2023-02-22T18:26:10.846Z,95805.25
2023-02-22T18:28:41.102Z,95807.88
2023-02-22T18:31:09.702Z,95800.38
2023-02-22T18:33:37.906Z,95796.91
2023-02-22T18:36:06.345Z,95804.34
2023-02-22T18:38:34.102Z,95801.59
2023-02-22T18:41:02.457Z,95807.88
2023-02-22T18:43:31.628Z,95807.63
2023-02-22T18:46:08.377Z,95803.88
2023-02-22T18:48:37.542Z,95799.09
2023-02-22T18:51:09.684Z,95801.63
2023-02-22T18:53:38.536Z,95798.53
2023-02-22T18:56:07.416Z,95803.03
2023-02-22T18:58:35.874Z,95804.81
2023-02-22T19:01:04.916Z,95810.31
2023-02-22T19:03:38.009Z,95807.56
2023-02-22T19:06:08.947Z,95813.44
2023-02-22T19:08:39.473Z,95814.31
2023-02-22T19:11:08.616Z,95803.47
2023-02-22T19:13:37.810Z,95801.06
2023-02-22T19:16:07.247Z,95805.16
2023-02-22T19:18:45.574Z,95803.69
2023-02-22T19:21:15.996Z,95803.03
2023-02-22T19:23:48.078Z,95799.56
2023-02-22T19:26:18.768Z,95803.69
2023-02-22T19:28:46.871Z,95800.69
2023-02-22T19:31:16.858Z,95801.06
2023-02-22T19:33:47.392Z,95800.53
2023-02-22T19:36:16.348Z,95801.25
2023-02-22T19:38:45.055Z,95802.34
2023-02-22T19:41:18.069Z,95805.53
2023-02-22T19:43:47.198Z,95798.19
2023-02-22T19:46:17.975Z,95802.59
2023-02-22T19:48:47.220Z,95813.56
2023-02-22T19:51:17.637Z,95814.84
2023-02-22T19:53:47.047Z,95810.50
2023-02-22T19:56:17.622Z,95813.63
2023-02-22T19:58:47.036Z,95812.69
2023-02-22T20:01:17.462Z,95816.94
2023-02-22T20:03:45.387Z,95809.69
2023-02-22T20:06:16.611Z,95819.84
2023-02-22T20:08:44.480Z,95819.16
2023-02-22T20:11:13.286Z,95831.06
2023-02-22T20:13:43.701Z,95832.56
2023-02-22T20:16:15.895Z,95838.72
2023-02-22T20:18:44.321Z,95835.25
2023-02-22T20:21:19.458Z,95837.44
2023-02-22T20:23:47.856Z,95825.53
2023-02-22T20:26:19.050Z,95835.88
2023-02-22T20:28:47.008Z,95837.63
2023-02-22T20:31:16.107Z,95841.91
2023-02-22T20:33:45.759Z,95834.75
2023-02-22T20:36:16.933Z,95829.47
2023-02-22T20:38:45.920Z,95837.22
2023-02-22T20:41:16.624Z,95838.88
2023-02-22T20:43:45.106Z,95838.00
2023-02-22T20:46:13.084Z,95844.47
2023-02-22T20:48:41.002Z,95840.06
2023-02-22T20:51:10.096Z,95835.34
2023-02-22T20:53:41.740Z,95839.69
2023-02-22T20:56:13.740Z,95838.34
2023-02-22T20:58:41.779Z,95841.50
2023-02-22T21:01:12.055Z,95839.50
2023-02-22T21:03:40.814Z,95838.34
2023-02-22T21:06:10.051Z,95841.44
2023-02-22T21:08:39.445Z,95835.44
2023-02-22T21:11:11.817Z,95835.53
2023-02-22T21:13:39.778Z,95843.00
2023-02-22T21:16:10.323Z,95825.44
2023-02-22T21:18:38.493Z,95834.88
2023-02-22T21:21:10.343Z,95827.56
2023-02-22T21:23:40.879Z,95833.94
2023-02-22T21:26:14.589Z,95832.69
2023-02-22T21:28:51.929Z,95844.50
2023-02-22T21:31:21.854Z,95841.59
2023-02-22T21:33:55.691Z,95840.66
2023-02-22T21:36:25.844Z,95849.22
2023-02-22T21:38:59.860Z,95848.34
2023-02-22T21:41:30.353Z,95846.25
2023-02-22T21:43:59.410Z,95843.16
2023-02-22T21:46:30.956Z,95844.22
2023-02-22T21:48:59.821Z,95839.88
2023-02-22T21:51:31.986Z,95838.06
2023-02-22T21:54:03.533Z,95848.22
2023-02-22T21:56:33.005Z,95844.59
2023-02-22T21:59:03.630Z,95839.72
2023-02-22T22:01:33.368Z,95840.81
2023-02-22T22:04:02.264Z,95839.00
2023-02-22T22:06:32.479Z,95841.75
2023-02-22T22:09:01.672Z,95845.88
2023-02-22T22:11:30.489Z,95839.94
2023-02-22T22:13:59.626Z,95846.97
2023-02-22T22:16:30.205Z,95847.25
2023-02-22T22:18:58.707Z,95836.84
2023-02-22T22:21:27.173Z,95847.75
2023-02-22T22:23:55.995Z,95842.13
2023-02-22T22:26:27.275Z,95843.16
2023-02-22T22:28:58.718Z,95846.16
2023-02-22T22:31:27.523Z,95841.03
2023-02-22T22:33:56.842Z,95843.16
2023-02-22T22:36:26.590Z,95842.06
2023-02-22T22:38:57.304Z,95847.69
2023-02-22T22:41:28.822Z,95847.97
2023-02-22T22:43:56.925Z,95837.91
2023-02-22T22:46:24.768Z,95840.31
2023-02-22T22:48:52.505Z,95843.78
2023-02-22T22:51:21.617Z,95840.00
2023-02-22T22:53:51.275Z,95844.88
2023-02-22T22:56:21.125Z,95848.34
2023-02-22T22:58:53.032Z,95850.81
2023-02-22T23:01:26.974Z,95843.56
2023-02-22T23:03:56.682Z,95848.44
2023-02-22T23:06:26.070Z,95855.63
2023-02-22T23:09:00.282Z,95845.72
2023-02-22T23:11:29.622Z,95860.88
2023-02-22T23:14:00.129Z,95863.59
2023-02-22T23:16:28.810Z,95854.72
2023-02-22T23:18:56.586Z,95856.53
2023-02-22T23:21:24.440Z,95853.44
2023-02-22T23:23:56.350Z,95858.19
2023-02-22T23:26:26.554Z,95870.28
2023-02-22T23:28:56.850Z,95861.72
2023-02-22T23:31:29.252Z,95870.59
2023-02-22T23:33:58.899Z,95861.69
2023-02-22T23:36:27.547Z,95864.38
2023-02-22T23:38:55.829Z,95863.00
2023-02-22T23:41:25.137Z,95858.16
2023-02-22T23:43:53.840Z,95851.88
2023-02-22T23:46:21.587Z,95852.31
2023-02-22T23:49:01.535Z,95853.03
2023-02-22T23:51:39.018Z,95860.72
2023-02-22T23:54:08.391Z,95855.59
2023-02-22T23:56:38.753Z,95860.09
2023-02-22T23:59:12.452Z,95856.03
